createdAt,value
2018-06-22T00:01:14.705Z,2.07
2018-06-22T00:03:44.706Z,1.20
2018-06-22T00:06:14.574Z,1.20
2018-06-22T00:08:44.608Z,1.03
2018-06-22T00:11:15.234Z,1.80
2018-06-22T00:13:45.098Z,2.00
2018-06-22T00:16:14.695Z,1.50
2018-06-22T00:18:44.601Z,2.27
2018-06-22T00:21:14.706Z,0.90
2018-06-22T00:23:44.707Z,1.00
2018-06-22T00:26:15.416Z,1.80
2018-06-22T00:28:45.731Z,1.30
2018-06-22T00:31:16.786Z,1.53
2018-06-22T00:33:46.875Z,1.33
2018-06-22T00:36:17.198Z,1.40
2018-06-22T00:38:47.120Z,1.10
2018-06-22T00:41:17.147Z,1.40
2018-06-22T00:43:47.166Z,1.33
2018-06-22T00:46:17.130Z,1.10
2018-06-22T00:48:47.058Z,1.00
2018-06-22T00:51:17.341Z,1.20
2018-06-22T00:53:52.774Z,1.43
2018-06-22T00:56:22.563Z,1.10
2018-06-22T00:58:52.993Z,1.03
2018-06-22T01:01:23.056Z,1.13
2018-06-22T01:03:53.463Z,1.23
2018-06-22T01:06:23.510Z,1.10
2018-06-22T01:08:53.532Z,1.33
2018-06-22T01:11:23.528Z,1.10
2018-06-22T01:13:54.741Z,1.20
2018-06-22T01:16:25.975Z,1.20
2018-06-22T01:18:56.128Z,1.50
2018-06-22T01:21:27.010Z,1.53
2018-06-22T01:23:58.223Z,1.37
2018-06-22T01:26:28.584Z,1.27
2018-06-22T01:29:02.582Z,1.50
2018-06-22T01:31:32.803Z,1.73
2018-06-22T01:34:02.967Z,1.60
2018-06-22T01:36:32.787Z,1.70
2018-06-22T01:39:03.250Z,1.90
2018-06-22T01:41:33.287Z,1.60
2018-06-22T01:44:03.587Z,2.10
2018-06-22T01:46:33.899Z,1.87
2018-06-22T01:49:04.364Z,1.60
2018-06-22T01:51:34.735Z,2.43
2018-06-22T01:54:04.681Z,2.10
2018-06-22T01:56:34.667Z,1.57
2018-06-22T01:59:04.771Z,1.90
2018-06-22T02:01:35.171Z,1.60
2018-06-22T02:04:05.309Z,1.80
2018-06-22T02:06:36.496Z,1.77
2018-06-22T02:09:09.459Z,1.47
2018-06-22T02:11:39.328Z,1.57
2018-06-22T02:14:09.987Z,1.40
2018-06-22T02:16:39.963Z,1.60
2018-06-22T02:19:09.951Z,1.30
2018-06-22T02:21:40.420Z,1.30
2018-06-22T02:24:10.101Z,2.20
2018-06-22T02:26:40.198Z,1.13
2018-06-22T02:29:11.044Z,1.93
2018-06-22T02:31:40.926Z,1.30
2018-06-22T02:34:11.120Z,2.00
2018-06-22T02:36:43.968Z,1.60
2018-06-22T02:39:14.718Z,1.73
2018-06-22T02:41:44.895Z,2.00
2018-06-22T02:44:15.383Z,1.40
2018-06-22T02:46:45.326Z,1.10
2018-06-22T02:49:16.908Z,1.80
2018-06-22T02:51:46.858Z,1.50
2018-06-22T02:54:17.349Z,1.70
2018-06-22T02:56:48.016Z,2.47
2018-06-22T02:59:18.223Z,1.90
2018-06-22T03:01:48.191Z,1.93
2018-06-22T03:04:17.939Z,2.00
2018-06-22T03:06:48.357Z,1.87
2018-06-22T03:09:18.484Z,2.40
2018-06-22T03:11:48.521Z,2.50
2018-06-22T03:14:18.694Z,1.90
2018-06-22T03:16:48.545Z,2.00
2018-06-22T03:19:18.354Z,2.00
2018-06-22T03:21:48.715Z,1.97
2018-06-22T03:24:19.803Z,1.93
2018-06-22T03:26:49.854Z,2.80
2018-06-22T03:29:20.059Z,2.43
2018-06-22T03:31:49.452Z,2.27
2018-06-22T03:34:20.357Z,2.40
2018-06-22T03:36:56.603Z,2.80
2018-06-22T03:39:26.388Z,2.70
2018-06-22T03:41:56.156Z,2.20
2018-06-22T03:44:27.487Z,2.10
2018-06-22T03:46:57.199Z,2.23
2018-06-22T03:49:27.052Z,2.30
2018-06-22T03:51:57.452Z,2.70
2018-06-22T03:54:27.933Z,1.97
2018-06-22T03:56:58.214Z,2.57
2018-06-22T03:59:28.541Z,2.20
2018-06-22T04:01:58.313Z,2.40
2018-06-22T04:04:28.522Z,2.60
2018-06-22T04:06:59.079Z,1.80
2018-06-22T04:09:29.006Z,2.47
2018-06-22T04:11:58.810Z,2.00
2018-06-22T04:14:28.879Z,2.47
2018-06-22T04:16:58.883Z,2.40
2018-06-22T04:19:29.010Z,2.40
2018-06-22T04:21:59.478Z,2.30
2018-06-22T04:24:29.489Z,2.50
2018-06-22T04:26:59.309Z,1.83
2018-06-22T04:29:29.425Z,2.50
2018-06-22T04:31:59.254Z,2.87
2018-06-22T04:34:29.276Z,1.93
2018-06-22T04:37:11.178Z,2.90
2018-06-22T04:39:41.288Z,2.17
2018-06-22T04:42:11.888Z,2.33
2018-06-22T04:44:42.860Z,2.17
2018-06-22T04:47:13.030Z,2.20
2018-06-22T04:49:43.343Z,2.43
2018-06-22T04:52:12.763Z,2.60
2018-06-22T04:54:42.502Z,2.60
2018-06-22T04:57:12.938Z,2.27
2018-06-22T04:59:42.804Z,2.67
2018-06-22T05:02:12.513Z,1.90
2018-06-22T05:04:42.834Z,2.70
2018-06-22T05:07:12.797Z,2.60
2018-06-22T05:09:42.521Z,2.00
2018-06-22T05:12:12.287Z,2.37
2018-06-22T05:14:41.824Z,2.80
2018-06-22T05:17:11.657Z,2.37
2018-06-22T05:19:41.784Z,2.60
2018-06-22T05:22:11.817Z,2.33
2018-06-22T05:24:41.336Z,2.50
2018-06-22T05:27:11.487Z,3.13
2018-06-22T05:29:41.504Z,2.53
2018-06-22T05:32:11.351Z,2.10
2018-06-22T05:34:41.082Z,2.20
2018-06-22T05:37:11.170Z,1.87
2018-06-22T05:39:41.155Z,2.30
2018-06-22T05:42:12.217Z,2.27
2018-06-22T05:44:42.921Z,2.33
2018-06-22T05:47:13.513Z,2.50
2018-06-22T05:49:43.299Z,2.90
2018-06-22T05:52:13.927Z,2.40
2018-06-22T05:54:44.016Z,2.60
2018-06-22T05:57:13.625Z,2.40
2018-06-22T05:59:43.658Z,2.03
2018-06-22T06:02:13.613Z,2.53
2018-06-22T06:04:43.354Z,2.20
2018-06-22T06:07:13.565Z,2.03
2018-06-22T06:09:43.803Z,2.97
2018-06-22T06:12:14.244Z,3.00
2018-06-22T06:14:44.016Z,2.87
2018-06-22T06:17:13.944Z,2.30
2018-06-22T06:19:43.733Z,3.07
2018-06-22T06:22:14.616Z,3.10
2018-06-22T06:24:44.555Z,2.67
2018-06-22T06:27:14.225Z,2.20
2018-06-22T06:29:43.969Z,2.93
2018-06-22T06:32:13.954Z,2.80
2018-06-22T06:34:43.516Z,2.17
2018-06-22T06:37:14.717Z,2.53
2018-06-22T06:39:44.657Z,2.40
2018-06-22T06:42:15.275Z,2.93
2018-06-22T06:44:45.476Z,3.40
2018-06-22T06:47:14.937Z,3.03
2018-06-22T06:49:45.128Z,2.27
2018-06-22T06:52:15.573Z,2.50
2018-06-22T06:54:45.010Z,2.27
2018-06-22T06:57:16.490Z,3.00
2018-06-22T06:59:46.239Z,2.53
2018-06-22T07:02:16.001Z,3.03
2018-06-22T07:04:45.487Z,3.00
2018-06-22T07:07:16.188Z,3.07
2018-06-22T07:09:46.038Z,2.80
2018-06-22T07:12:15.497Z,2.17
2018-06-22T07:14:45.200Z,2.40
2018-06-22T07:17:14.742Z,2.30
2018-06-22T07:19:44.254Z,2.43
2018-06-22T07:22:14.295Z,2.93
2018-06-22T07:24:43.699Z,2.17
2018-06-22T07:27:13.860Z,2.63
2018-06-22T07:29:44.045Z,2.27
2018-06-22T07:32:13.749Z,2.00
2018-06-22T07:34:43.828Z,2.03
2018-06-22T07:37:14.315Z,2.57
2018-06-22T07:39:43.743Z,2.20
2018-06-22T07:42:13.646Z,3.53
2018-06-22T07:44:44.798Z,1.83
2018-06-22T07:47:15.853Z,2.40
2018-06-22T07:49:45.321Z,2.40
2018-06-22T07:52:15.427Z,2.47
2018-06-22T07:54:45.242Z,2.13
2018-06-22T07:57:15.026Z,2.33
2018-06-22T07:59:45.322Z,2.30
2018-06-22T08:02:15.881Z,2.10
2018-06-22T08:04:45.353Z,1.80
2018-06-22T08:07:15.708Z,2.40
2018-06-22T08:09:45.119Z,2.10
2018-06-22T08:12:14.932Z,2.30
2018-06-22T08:14:45.212Z,2.30
2018-06-22T08:17:15.488Z,2.30
2018-06-22T08:19:45.013Z,2.50
2018-06-22T08:22:15.224Z,2.50
2018-06-22T08:24:46.216Z,2.50
2018-06-22T08:27:16.090Z,1.70
2018-06-22T08:29:46.308Z,1.90
2018-06-22T08:32:15.930Z,1.80
2018-06-22T08:34:45.944Z,3.93
2018-06-22T08:37:16.724Z,2.20
2018-06-22T08:39:46.377Z,1.77
2018-06-22T08:42:16.131Z,1.70
2018-06-22T08:44:46.374Z,1.87
2018-06-22T08:47:16.986Z,1.87
2018-06-22T08:49:46.769Z,1.50
2018-06-22T08:52:16.574Z,1.73
2018-06-22T08:54:46.126Z,2.27
2018-06-22T08:57:15.883Z,1.53
2018-06-22T08:59:46.510Z,1.53
2018-06-22T09:02:16.076Z,1.70
2018-06-22T09:04:45.726Z,2.23
2018-06-22T09:07:16.410Z,2.17
2018-06-22T09:09:46.212Z,2.10
2018-06-22T09:12:18.158Z,1.50
2018-06-22T09:14:48.782Z,1.80
2018-06-22T09:17:19.048Z,1.70
2018-06-22T09:19:48.747Z,1.83
2018-06-22T09:22:19.169Z,1.50
2018-06-22T09:24:48.687Z,1.60
2018-06-22T09:27:19.733Z,1.40
2018-06-22T09:29:49.575Z,2.23
2018-06-22T09:32:19.187Z,1.60
2018-06-22T09:34:49.141Z,1.73
2018-06-22T09:37:19.876Z,2.60
2018-06-22T09:39:50.011Z,2.33
2018-06-22T09:42:19.967Z,1.73
2018-06-22T09:44:50.068Z,2.30
2018-06-22T09:47:20.643Z,2.10
2018-06-22T09:49:50.597Z,1.70
2018-06-22T09:52:21.073Z,1.87
2018-06-22T09:54:50.922Z,2.20
2018-06-22T09:57:22.363Z,1.97
2018-06-22T09:59:52.387Z,1.70
2018-06-22T10:02:21.791Z,1.93
2018-06-22T10:04:52.954Z,1.57
2018-06-22T10:07:23.036Z,2.13
2018-06-22T10:09:53.083Z,1.60
2018-06-22T10:14:59.146Z,1.50
2018-06-22T10:17:28.948Z,1.53
2018-06-22T10:19:58.509Z,1.53
2018-06-22T10:22:28.265Z,1.57
2018-06-22T10:24:59.069Z,1.23
2018-06-22T10:27:28.869Z,1.90
2018-06-22T10:29:59.436Z,2.63
2018-06-22T10:32:29.832Z,1.60
2018-06-22T10:34:59.984Z,1.50
2018-06-22T10:37:29.682Z,1.30
2018-06-22T10:40:00.282Z,1.20
2018-06-22T10:42:30.694Z,1.40
2018-06-22T10:45:01.520Z,1.30
2018-06-22T10:47:33.352Z,1.93
2018-06-22T10:50:03.536Z,1.60
2018-06-22T10:52:33.253Z,1.57
2018-06-22T10:55:03.515Z,1.30
2018-06-22T10:57:33.603Z,1.20
2018-06-22T11:00:04.470Z,3.50
2018-06-22T11:02:34.766Z,1.40
2018-06-22T11:05:04.778Z,2.00
2018-06-22T11:07:35.390Z,1.40
2018-06-22T11:10:05.204Z,1.30
2018-06-22T11:12:35.403Z,1.10
2018-06-22T11:15:05.515Z,1.07
2018-06-22T11:17:35.085Z,1.30
2018-06-22T11:20:05.401Z,1.80
2018-06-22T11:22:34.826Z,1.87
2018-06-22T11:25:04.312Z,1.57
2018-06-22T11:27:34.787Z,1.73
2018-06-22T11:30:05.357Z,1.50
2018-06-22T11:32:35.091Z,1.37
2018-06-22T11:35:04.543Z,1.97
2018-06-22T11:37:36.801Z,1.20
2018-06-22T11:40:07.012Z,1.27
2018-06-22T11:42:37.191Z,1.10
2018-06-22T11:45:09.692Z,0.97
2018-06-22T11:47:39.430Z,0.90
2018-06-22T11:50:09.192Z,1.40
2018-06-22T11:52:41.463Z,1.10
2018-06-22T11:55:11.424Z,1.10
2018-06-22T11:57:40.975Z,1.17
2018-06-22T12:00:10.399Z,1.07
2018-06-22T12:02:40.154Z,0.90
2018-06-22T12:05:09.838Z,1.20
2018-06-22T12:07:39.249Z,1.20
2018-06-22T12:10:09.114Z,1.80
2018-06-22T12:12:38.668Z,1.70
2018-06-22T12:15:08.281Z,1.17
2018-06-22T12:17:39.288Z,1.40
2018-06-22T12:20:08.943Z,1.20
2018-06-22T12:22:38.302Z,1.27
2018-06-22T12:25:08.097Z,1.10
2018-06-22T12:27:37.654Z,1.40
2018-06-22T12:30:07.343Z,1.10
2018-06-22T12:32:37.170Z,1.57
2018-06-22T12:35:06.732Z,1.27
2018-06-22T12:37:36.186Z,1.10
2018-06-22T12:40:06.160Z,1.30
2018-06-22T12:42:35.863Z,1.40
2018-06-22T12:45:05.893Z,1.50
2018-06-22T12:47:36.430Z,2.23
2018-06-22T12:50:06.091Z,1.30
2018-06-22T12:52:35.667Z,1.70
2018-06-22T12:55:06.425Z,1.43
2018-06-22T12:57:36.097Z,1.13
2018-06-22T13:00:07.287Z,1.43
2018-06-22T13:02:37.888Z,1.33
2018-06-22T13:05:07.800Z,1.83
2018-06-22T13:07:38.754Z,1.40
2018-06-22T13:10:11.804Z,1.23
2018-06-22T13:12:42.143Z,1.00
2018-06-22T13:15:12.320Z,1.20
2018-06-22T13:17:42.770Z,1.40
2018-06-22T13:20:19.081Z,1.40
2018-06-22T13:22:49.398Z,1.47
2018-06-22T13:25:19.046Z,1.30
2018-06-22T13:27:49.674Z,1.83
2018-06-22T13:30:20.090Z,1.20
2018-06-22T13:32:51.820Z,1.20
2018-06-22T13:35:21.377Z,1.10
2018-06-22T13:37:53.142Z,1.30
2018-06-22T13:40:23.484Z,1.47
2018-06-22T13:42:53.287Z,1.40
2018-06-22T13:45:23.189Z,1.47
2018-06-22T13:47:53.407Z,1.40
2018-06-22T13:50:22.990Z,1.30
2018-06-22T13:52:54.809Z,1.13
2018-06-22T13:55:24.882Z,1.07
2018-06-22T13:57:54.687Z,1.40
2018-06-22T14:00:25.329Z,0.90
2018-06-22T14:02:55.720Z,1.00
2018-06-22T14:05:29.921Z,1.33
2018-06-22T14:08:00.170Z,1.20
2018-06-22T14:10:30.944Z,1.20
2018-06-22T14:13:02.621Z,1.20
2018-06-22T14:15:32.170Z,1.13
2018-06-22T14:18:01.838Z,1.50
2018-06-22T14:20:32.259Z,0.90
2018-06-22T14:23:02.604Z,1.27
2018-06-22T14:25:32.106Z,1.33
2018-06-22T14:28:05.014Z,1.20
2018-06-22T14:30:35.484Z,1.10
2018-06-22T14:33:06.119Z,1.70
2018-06-22T14:35:36.451Z,1.40
2018-06-22T14:38:06.213Z,1.17
2018-06-22T14:40:41.750Z,1.60
2018-06-22T14:43:17.329Z,1.57
2018-06-22T14:45:49.004Z,1.37
2018-06-22T14:48:28.812Z,1.03
2018-06-22T14:51:13.015Z,1.30
2018-06-22T14:53:53.301Z,1.53
2018-06-22T14:56:28.528Z,1.60
2018-06-22T14:59:04.026Z,1.80
2018-06-22T15:01:39.270Z,1.50
2018-06-22T15:04:14.869Z,1.33
2018-06-22T15:08:55.428Z,1.23
2018-06-22T15:11:25.305Z,1.00
2018-06-22T15:13:55.620Z,1.03
2018-06-22T15:16:25.435Z,1.30
2018-06-22T15:18:55.271Z,1.50
2018-06-22T15:21:24.755Z,1.20
2018-06-22T15:23:54.226Z,2.60
2018-06-22T15:26:25.201Z,1.50
2018-06-22T15:28:55.209Z,1.50
2018-06-22T15:31:24.867Z,1.77
2018-06-22T15:34:02.097Z,1.27
2018-06-22T15:36:37.871Z,1.30
2018-06-22T15:39:14.965Z,1.60
2018-06-22T15:41:50.088Z,1.57
2018-06-22T15:44:24.502Z,1.30
2018-06-22T15:46:59.888Z,1.87
2018-06-22T15:49:34.529Z,1.83
2018-06-22T15:52:09.923Z,1.87
2018-06-22T15:54:44.983Z,1.80
2018-06-22T15:57:14.862Z,1.50
2018-06-22T15:59:45.707Z,1.63
2018-06-22T16:08:39.301Z,2.17
2018-06-22T16:11:08.788Z,1.87
2018-06-22T16:13:38.714Z,1.80
2018-06-22T16:16:13.064Z,2.03
2018-06-22T16:18:47.243Z,2.00
2018-06-22T16:21:21.830Z,1.73
2018-06-22T16:23:57.500Z,1.60
2018-06-22T16:26:33.431Z,1.90
2018-06-22T16:29:03.762Z,1.67
2018-06-22T16:31:35.784Z,1.87
2018-06-22T16:34:05.641Z,1.90
2018-06-22T16:36:35.337Z,1.83
2018-06-22T16:39:07.501Z,1.63
2018-06-22T16:41:44.567Z,1.80
2018-06-22T16:44:14.654Z,2.23
2018-06-22T16:46:44.153Z,2.10
2018-06-22T16:49:14.084Z,1.60
2018-06-22T16:51:43.784Z,1.93
2018-06-22T16:54:14.569Z,2.10
2018-06-22T16:56:44.318Z,1.77
2018-06-22T16:59:16.889Z,1.83
2018-06-22T17:01:46.364Z,1.67
2018-06-22T17:04:16.944Z,1.43
2018-06-22T17:06:51.184Z,1.77
2018-06-22T17:09:26.104Z,1.73
2018-06-22T17:12:00.685Z,2.00
2018-06-22T17:14:35.873Z,1.93
2018-06-22T17:17:11.352Z,1.73
2018-06-22T17:19:43.920Z,1.70
2018-06-22T17:22:14.980Z,1.77
2018-06-22T17:29:52.617Z,1.60
2018-06-22T17:32:26.151Z,2.57
2018-06-22T17:34:56.691Z,2.70
2018-06-22T17:37:28.741Z,1.60
2018-06-22T17:39:58.864Z,1.63
2018-06-22T17:42:31.090Z,1.57
2018-06-22T17:45:07.327Z,2.10
2018-06-22T17:47:37.139Z,2.40
2018-06-22T17:50:11.935Z,1.90
2018-06-22T17:52:41.674Z,1.80
2018-06-22T17:55:12.184Z,2.00
2018-06-22T17:57:42.733Z,2.30
2018-06-22T18:00:17.913Z,2.40
2018-06-22T18:02:53.028Z,2.10
2018-06-22T18:05:27.820Z,1.97
2018-06-22T18:08:00.387Z,1.93
2018-06-22T18:10:35.162Z,2.50
2018-06-22T18:13:06.661Z,2.40
2018-06-22T18:15:36.436Z,1.60
2018-06-22T18:18:06.356Z,2.03
2018-06-22T18:20:36.036Z,2.20
2018-06-22T18:23:09.381Z,2.33
2018-06-22T18:25:40.071Z,1.50
2018-06-22T18:28:10.069Z,2.40
2018-06-22T18:30:40.542Z,2.70
2018-06-22T18:33:12.867Z,2.20
2018-06-22T18:35:42.355Z,1.90
2018-06-22T18:38:12.514Z,2.57
2018-06-22T18:40:42.547Z,2.60
2018-06-22T18:43:17.977Z,2.17
2018-06-22T18:45:48.057Z,2.03
2018-06-22T18:48:17.531Z,1.93
2018-06-22T18:50:47.045Z,2.00
2018-06-22T18:55:26.972Z,2.00
2018-06-22T18:58:02.114Z,2.03
2018-06-22T19:00:37.782Z,1.77
2018-06-22T19:03:12.924Z,2.23
2018-06-22T19:05:42.905Z,1.70
2018-06-22T19:08:12.816Z,1.50
2018-06-22T19:10:42.964Z,1.70
2018-06-22T19:13:13.834Z,1.80
2018-06-22T19:15:43.433Z,2.03
2018-06-22T19:18:12.950Z,1.70
2018-06-22T19:20:43.136Z,2.00
2018-06-22T19:23:12.821Z,1.97
2018-06-22T19:25:43.160Z,2.10
2018-06-22T19:28:14.339Z,1.67
2018-06-22T19:30:44.256Z,1.90
2018-06-22T19:33:14.114Z,1.67
2018-06-22T19:35:44.584Z,2.03
2018-06-22T19:38:14.208Z,1.60
2018-06-22T19:40:43.904Z,2.00
2018-06-22T19:43:18.750Z,2.50
2018-06-22T19:45:53.521Z,1.73
2018-06-22T19:48:28.893Z,2.30
2018-06-22T19:51:03.280Z,1.97
2018-06-22T19:53:37.765Z,3.20
2018-06-22T19:56:08.409Z,2.50
2018-06-22T19:58:37.931Z,1.87
2018-06-22T20:01:07.900Z,2.30
2018-06-22T20:03:37.638Z,2.43
2018-06-22T20:06:10.113Z,2.40
2018-06-22T20:08:39.669Z,2.70
2018-06-22T20:11:09.995Z,2.43
2018-06-22T20:13:39.656Z,2.67
2018-06-22T20:16:09.568Z,2.40
2018-06-22T20:18:39.531Z,2.97
2018-06-22T20:21:16.875Z,2.37
2018-06-22T20:23:46.710Z,2.60
2018-06-22T20:26:16.495Z,3.40
2018-06-22T20:28:46.489Z,1.93
2018-06-22T20:31:21.037Z,2.23
2018-06-22T20:33:50.555Z,2.13
2018-06-22T20:36:26.276Z,2.70
2018-06-22T20:39:01.440Z,2.90
2018-06-22T20:41:37.047Z,2.77
2018-06-22T20:44:11.125Z,3.00
2018-06-22T20:46:45.418Z,2.47
2018-06-22T20:49:19.625Z,2.73
2018-06-22T20:51:49.523Z,2.80
2018-06-22T20:54:19.361Z,2.40
2018-06-22T20:56:48.874Z,2.20
2018-06-22T20:59:18.663Z,3.00
2018-06-22T21:01:48.119Z,2.00
2018-06-22T21:04:17.924Z,3.00
2018-06-22T21:06:47.703Z,2.17
2018-06-22T21:09:17.325Z,2.83
2018-06-22T21:11:46.799Z,2.83
2018-06-22T21:14:16.572Z,2.43
2018-06-22T21:16:46.700Z,2.20
2018-06-22T21:19:16.174Z,2.70
2018-06-22T21:21:51.155Z,2.23
2018-06-22T21:24:20.628Z,3.23
2018-06-22T21:26:50.009Z,2.50
2018-06-22T21:29:24.419Z,2.73
2018-06-22T21:31:58.565Z,2.33
2018-06-22T21:34:34.880Z,2.37
2018-06-22T21:37:09.121Z,2.90
2018-06-22T21:39:39.180Z,2.77
2018-06-22T21:42:08.887Z,2.70
2018-06-22T21:44:38.627Z,2.70
2018-06-22T21:47:09.391Z,2.57
2018-06-22T21:49:38.829Z,2.20
2018-06-22T21:52:08.548Z,2.53
2018-06-22T21:54:38.322Z,2.90
2018-06-22T21:57:07.843Z,3.30
2018-06-22T21:59:37.242Z,2.90
2018-06-22T22:02:09.311Z,3.40
2018-06-22T22:04:38.832Z,2.90
2018-06-22T22:07:08.543Z,3.10
2018-06-22T22:09:44.283Z,2.90
2018-06-22T22:12:13.905Z,3.40
2018-06-22T22:14:43.386Z,3.07
2018-06-22T22:17:13.293Z,3.07
2018-06-22T22:19:42.733Z,3.27
2018-06-22T22:22:12.684Z,3.23
2018-06-22T22:24:42.813Z,3.00
2018-06-22T22:27:12.302Z,3.50
2018-06-22T22:29:41.679Z,2.73
2018-06-22T22:32:11.668Z,3.00
2018-06-22T22:34:41.160Z,3.40
2018-06-22T22:37:11.001Z,3.50
2018-06-22T22:39:42.233Z,3.20
2018-06-22T22:42:11.675Z,2.70
2018-06-22T22:44:41.153Z,3.60
2018-06-22T22:47:11.390Z,3.17
2018-06-22T22:49:40.909Z,3.00
2018-06-22T22:52:10.628Z,2.47
2018-06-22T22:54:40.357Z,3.10
2018-06-22T22:57:10.016Z,3.00
2018-06-22T22:59:39.354Z,3.53
2018-06-22T23:02:09.153Z,3.47
2018-06-22T23:04:39.171Z,2.87
2018-06-22T23:07:08.727Z,2.63
2018-06-22T23:09:38.920Z,3.40
2018-06-22T23:12:09.378Z,2.90
2018-06-22T23:14:38.872Z,3.80
2018-06-22T23:17:08.652Z,2.80
2018-06-22T23:19:38.082Z,3.10
2018-06-22T23:22:08.437Z,3.00
2018-06-22T23:24:38.416Z,2.70
2018-06-22T23:27:07.840Z,2.73
2018-06-22T23:29:37.328Z,2.90
2018-06-22T23:32:07.375Z,3.87
2018-06-22T23:34:37.459Z,3.27
2018-06-22T23:37:07.234Z,3.13
2018-06-22T23:39:37.637Z,3.00
2018-06-22T23:42:07.136Z,2.60
2018-06-22T23:44:37.066Z,3.80
2018-06-22T23:47:06.850Z,2.93
2018-06-22T23:49:36.522Z,3.10
2018-06-22T23:52:06.122Z,2.57
2018-06-22T23:54:36.648Z,2.73
2018-06-22T23:57:06.173Z,2.80
2018-06-22T23:59:35.683Z,3.13
